Latest Coastal Weather Observations for Cape Moreton

IDQ60701

Issued at 10:21 am EST Wednesday 4 March 2015 (issued every 10 minutes, with the page automatically refreshed every 10 minutes)

About coastal observations | Map of coastal stations | Coastal observations for QLD | Marine services | Other Formats
Station Details ID: 040043 Name: CAPE MORETON LIGHTHOUSE Lat: -27.03 Lon: 153.47 Height: 99.9 m
Data from the previous 72 hours. | See also: Recent months at Cape Moreton
Date/Time
EST
Temp

°C
Wind Pressure Rain
since 9am
mm
Weather Cloud Vis
km
Sea
Height
m
Swell
Dir
 
Speed
knots
Gust
knots
hPa Trend Height
m
Period
s
Dir
04/10:00am 28.3 SE 7 9 1014.6 - 0.0 - - - - - - -
04/09:30am 28.0 SE 6 9 1014.7 - 0.0 - - - - - - -
04/09:00am 27.7 SE 6 9 1014.6 - 0.0 - - - - - - -
04/08:30am 26.7 ESE 6 7 1014.5 - 0.0 - - - - - - -
04/08:00am 26.9 ESE 5 7 1014.2 - 0.0 - - - - - - -
04/07:30am 26.0 ESE 5 6 1013.8 - 0.0 - - - - - - -
04/07:00am 25.8 ESE 5 7 1013.5 - 0.0 - - - - - - -
04/06:30am 24.5 SE 5 6 1013.3 - 0.0 - - - - - - -
04/06:00am 23.3 ESE 6 7 1013.0 - 0.0 - - - - - - -
04/05:30am 23.0 ESE 7 8 1012.8 - 0.0 - - - - - - -
04/05:00am 23.0 E 8 10 1012.6 - 0.0 - - - - - - -
04/04:30am 23.1 E 7 9 1012.6 - 0.0 - - - - - - -
04/04:00am 23.3 ESE 8 10 1012.4 - 0.0 - - - - - - -
04/03:30am 23.2 ESE 9 10 1012.5 - 0.0 - - - - - - -
04/03:00am 23.4 ESE 8 10 1012.8 - 0.0 - - - - - - -
04/02:30am 23.4 ESE 8 10 1013.2 - 0.0 - - - - - - -
04/02:00am 23.5 ESE 8 11 1013.4 - 0.0 - - - - - - -
04/01:30am 23.5 ESE 9 11 1013.7 - 0.0 - - - - - - -
04/01:00am 23.6 ESE 9 12 1014.1 - 0.0 - - - - - - -
04/12:30am 23.9 ESE 12 14 1014.5 - 0.0 - - - - - - -
04/12:00am 24.0 ESE 11 13 1014.8 - 0.0 - - - - - - -
 
Date/Time
EST
Temp

°C
Wind Pressure Rain
since 9am
mm
Weather Cloud Vis
km
Sea
Height
m
Swell
Dir
 
Speed
knots
Gust
knots
hPa Trend Height
m
Period
s
Dir
03/11:30pm 24.1 ESE 12 15 1015.1 - 0.0 - - - - - - -
03/11:00pm 24.1 ESE 13 15 1015.1 - 0.0 - - - - - - -
03/10:30pm 24.2 ESE 13 16 1015.2 - 0.0 - - - - - - -
03/10:00pm 24.2 ESE 14 17 1015.0 - 0.0 - - - - - - -
03/09:30pm 24.1 ESE 14 16 1015.0 - 0.0 - - - - - - -
03/09:00pm 24.1 ESE 14 17 1014.9 - 0.0 - - - - - - -
03/08:30pm 24.2 ESE 13 16 1014.8 - 0.0 - - - - - - -
03/08:00pm 24.3 ESE 13 16 1014.4 - 0.0 - - - - - - -
03/07:30pm 24.2 ESE 13 15 1014.2 - 0.0 - - - - - - -
03/07:00pm 24.3 ESE 13 15 1013.8 - 0.0 - - - - - - -
03/06:30pm 24.4 ESE 13 16 1013.7 - 0.0 - - - - - - -
03/06:00pm 24.7 ESE 14 16 1013.4 - 0.0 - - - - - - -
03/05:30pm 25.1 ESE 14 16 1013.4 - 0.0 - - - - - - -
03/05:00pm 25.3 ESE 14 17 1013.1 - 0.0 - - - - - - -
03/04:30pm 25.7 ESE 15 18 1013.1 - 0.0 - - - - - - -
03/04:00pm 25.9 ESE 15 19 1012.9 - 0.0 - - - - - - -
03/03:30pm 26.1 ESE 15 19 1013.0 - 0.0 - - - - - - -
03/03:00pm 26.4 SE 15 17 1013.1 - 0.0 - - - - - - -
03/02:30pm 26.6 ESE 15 17 1013.1 - 0.0 - - - - - - -
03/02:00pm 26.7 SE 16 20 1013.4 - 0.0 - - - - - - -
03/01:30pm 26.6 ESE 17 19 1013.7 - 0.0 - - - - - - -
03/01:00pm 27.1 ESE 17 20 1013.9 - 0.0 - - - - - - -
03/12:30pm 27.4 ESE 17 21 1014.2 - 0.0 - - - - - - -
03/12:00pm 27.7 ESE 17 19 1014.7 - 0.0 - - - - - - -
03/11:30am 27.4 ESE 18 21 1014.8 - 0.0 - - - - - - -
03/11:00am 27.5 SE 18 20 1015.2 - 0.0 - - - - - - -
03/10:30am 27.5 SE 15 18 1015.4 - 0.0 - - - - - - -
03/10:00am 27.3 SE 16 20 1015.4 - 0.0 - - - - - - -
03/09:30am 27.3 SE 17 21 1015.3 - 0.0 - - - - - - -
03/09:00am 26.9 SE 19 22 1015.1 - 0.0 - - - - - - -
03/08:30am 27.0 SE 18 21 1014.9 - 0.0 - - - - - - -
03/08:00am 26.6 SE 19 22 1014.6 - 0.0 - - - - - - -
03/07:30am 26.3 ESE 17 20 1014.3 - 0.0 - - - - - - -
03/07:00am 25.7 SE 18 21 1014.1 - 0.0 - - - - - - -
03/06:30am 25.2 ESE 17 22 1014.0 - 0.0 - - - - - - -
03/06:00am 24.6 SE 19 22 1013.7 - 0.0 - - - - - - -
03/05:30am 24.4 ESE 19 23 1013.6 - 0.0 - - - - - - -
03/05:00am 24.4 ESE 20 22 1013.3 - 0.0 - - - - - - -
03/04:30am 24.3 ESE 20 24 1013.0 - 0.0 - - - - - - -
03/04:00am 24.5 ESE 21 25 1012.8 - 0.0 - - - - - - -
03/03:30am 24.5 ESE 22 25 1012.7 - 0.0 - - - - - - -
03/03:00am 24.5 ESE 21 25 1012.5 - 0.0 - - - - - - -
03/02:30am 24.6 ESE 21 25 1012.7 - 0.0 - - - - - - -
03/02:00am 24.6 SE 23 27 1012.8 - 0.0 - - - - - - -
03/01:30am 24.5 SE 23 28 1013.0 - 0.0 - - - - - - -
03/01:00am 24.7 SE 22 26 1013.4 - 0.0 - - - - - - -
03/12:30am 24.8 SE 25 28 1013.5 - 0.0 - - - - - - -
03/12:00am 24.7 SE 21 26 1013.7 - 0.0 - - - - - - -
 
Date/Time
EST
Temp

°C
Wind Pressure Rain
since 9am
mm
Weather Cloud Vis
km
Sea
Height
m
Swell
Dir
 
Speed
knots
Gust
knots
hPa Trend Height
m
Period
s
Dir
02/11:30pm 24.8 SE 25 29 1013.9 - 0.0 - - - - - - -
02/11:00pm 24.8 SE 23 27 1014.1 - 0.0 - - - - - - -
02/10:30pm 25.0 SE 24 28 1014.1 - 0.0 - - - - - - -
02/10:00pm 24.9 SE 25 28 1013.9 - 0.0 - - - - - - -
02/09:30pm 24.9 SE 23 28 1014.1 - 0.0 - - - - - - -
02/09:00pm 25.0 SE 26 30 1013.8 - 0.0 - - - - - - -
02/08:30pm 25.0 SE 24 28 1013.5 - 0.0 - - - - - - -
02/08:00pm 25.0 SE 26 30 1013.4 - 0.0 - - - - - - -
02/07:30pm 24.9 SE 25 28 1013.0 - 0.0 - - - - - - -
02/07:00pm 24.9 SE 27 31 1012.5 - 0.0 - - - - - - -
02/06:30pm 24.4 SE 20 25 1012.3 - 0.0 - - - - - - -
02/06:00pm 23.1 SE 20 26 1012.2 - 0.0 - - - - - - -
02/05:30pm 24.1 SE 29 36 1011.4 - 0.0 - - - - - - -
02/05:00pm 24.3 SE 28 34 1010.9 - 0.0 - - - - - - -
02/04:30pm 24.5 SE 31 36 1010.7 - 0.0 - - - - - - -
02/04:20pm 25.5 SE 25 35 1010.9 - 0.0 - - - - - - -
02/04:00pm 25.7 SE 26 30 1010.7 - 0.0 - - - - - - -
02/03:30pm 26.1 SE 25 29 1010.4 - 0.0 - - - - - - -
02/03:00pm 26.1 SE 28 32 1010.4 - 0.0 - - - - - - -
02/02:30pm 26.1 SE 26 29 1010.7 - 0.0 - - - - - - -
02/02:00pm 26.0 SE 30 36 1010.8 - 0.0 - - - - - - -
02/01:30pm 26.3 SE 28 31 1011.2 - 0.0 - - - - - - -
02/01:00pm 26.5 SE 27 32 1011.4 - 0.0 - - - - - - -
02/12:30pm 26.3 SSE 32 35 1011.6 - 0.0 - - - - - - -
02/12:00pm 26.6 SSE 29 35 1012.0 - 0.0 - - - - - - -
02/11:30am 26.2 SSE 30 35 1011.9 - 0.0 - - - - - - -
02/11:00am 26.4 SSE 23 29 1012.4 - 0.0 - - - - - - -
02/10:30am 26.7 SSE 23 27 1012.5 - 0.0 - - - - - - -
02/10:23am 26.3 SSE 21 27 1012.5 - 0.0 - - - - - - -
02/10:00am 27.5 SSE 13 17 1012.6 - 0.0 - - - - - - -
02/09:30am 27.4 SE 13 16 1012.7 - 0.0 - - - - - - -
02/09:00am 28.2 SE 11 14 1012.7 - 0.0 - - - - - - -
02/08:30am 27.6 SSE 9 11 1012.4 - 0.0 - - - - - - -
02/08:00am 26.8 SSE 8 11 1012.0 - 0.0 - - - - - - -
02/07:30am 26.0 S 5 7 1011.7 - 0.0 - - - - - - -
02/07:00am 24.8 SSE 6 9 1011.7 - 0.0 - - - - - - -
02/06:30am 25.1 SSE 5 7 1011.5 - 0.0 - - - - - - -
02/06:00am 24.3 SE 7 9 1011.1 - 0.0 - - - - - - -
02/05:30am 24.0 SSE 8 10 1010.8 - 0.0 - - - - - - -
02/05:00am 23.9 SSE 5 5 1010.4 - 0.0 - - - - - - -
02/04:30am 24.1 CALM 0 0 1009.9 - 0.0 - - - - - - -
02/04:00am 24.0 W 3 4 1009.6 - 0.0 - - - - - - -
02/03:30am 24.2 NNW 4 4 1009.4 - 0.0 - - - - - - -
02/03:00am 24.3 NNW 4 5 1009.4 - 0.0 - - - - - - -
02/02:30am 24.2 N 5 6 1009.5 - 0.0 - - - - - - -
02/02:00am 24.3 N 5 6 1009.5 - 0.0 - - - - - - -
02/01:30am 24.1 NNW 5 6 1009.7 - 0.0 - - - - - - -
02/01:00am 24.4 NNE 3 5 1009.9 - 0.0 - - - - - - -
02/12:30am 24.4 NE 5 6 1010.1 - 0.0 - - - - - - -
02/12:00am 24.5 NE 5 7 1010.0 - 0.0 - - - - - - -
 
Date/Time
EST
Temp

°C
Wind Pressure Rain
since 9am
mm
Weather Cloud Vis
km
Sea
Height
m
Swell
Dir
 
Speed
knots
Gust
knots
hPa Trend Height
m
Period
s
Dir
01/11:30pm 24.6 N 6 8 1010.1 - 0.0 - - - - - - -
01/11:00pm 24.7 N 9 12 1009.7 - 0.0 - - - - - - -
01/10:30pm 24.7 N 10 12 1009.9 - 0.0 - - - - - - -
01/10:00pm 24.7 N 8 10 1010.2 - 0.0 - - - - - - -
01/09:30pm 24.7 NNE 10 12 1010.2 - 0.0 - - - - - - -
01/09:00pm 24.7 NNE 11 13 1009.8 - 0.0 - - - - - - -
01/08:30pm 24.6 NE 10 13 1009.6 - 0.0 - - - - - - -
01/08:00pm 24.7 NE 10 13 1009.7 - 0.0 - - - - - - -
01/07:30pm 24.7 NE 11 14 1009.2 - 0.0 - - - - - - -
01/07:00pm 24.7 NE 11 13 1008.9 - 0.0 - - - - - - -
01/06:30pm 24.7 NE 11 14 1008.5 - 0.0 - - - - - - -
01/06:00pm 24.9 NE 11 13 1008.3 - 0.0 - - - - - - -
01/05:30pm 25.1 NE 11 13 1008.1 - 0.0 - - - - - - -
01/05:00pm 25.2 ENE 12 16 1008.0 - 0.0 - - - - - - -
01/04:30pm 25.4 ENE 12 14 1007.9 - 0.0 - - - - - - -
01/04:00pm 25.7 ENE 12 15 1007.8 - 0.0 - - - - - - -
01/03:30pm 25.9 ENE 11 13 1008.0 - 0.0 - - - - - - -
01/03:00pm 26.4 ENE 11 12 1008.3 - 0.0 - - - - - - -
01/02:30pm 26.6 ENE 11 12 1008.5 - 0.0 - - - - - - -
01/02:00pm 26.9 ENE 9 11 1008.9 - 0.0 - - - - - - -
01/01:30pm 27.1 ENE 10 11 1009.2 - 0.0 - - - - - - -
01/01:00pm 27.4 ENE 9 10 1009.5 - 0.0 - - - - - - -
01/12:30pm 27.4 ENE 8 10 1009.8 - 0.0 - - - - - - -
01/12:00pm 27.3 ENE 8 10 1010.0 - 0.0 - - - - - - -
01/11:30am 27.5 ENE 7 9 1010.3 - 0.0 - - - - - - -
01/11:00am 26.9 ENE 7 8 1010.8 - 0.0 - - - - - - -
01/10:30am 27.1 ENE 6 8 1011.0 - 0.0 - - - - - - -

Other Formats:

Comma delimited format used in spreadsheet applications
http://www.bom.gov.au/fwo/IDQ60701/IDQ60701.94594.axf

JavaScript Object Notation format (JSON) in row-major order
http://www.bom.gov.au/fwo/IDQ60701/IDQ60701.94594.json